• Join FlightAware (Why Join?)
  • Login
  • US Flag 
08:44PM EDT


 

Airport Tracker/Info


-or-


 

Live Flight TrackerFlight Track Log ✈ SKW5631 ✈ 28-Apr-2013 ✈ KSFO - KSBA

Flight Track Log - Related Links

Times and Time Zones

All times are in EDT time to prevent confusion due to time zone crossing. See the SKW5631 flight status page for this flight to view local times or setup timezone preferences in your user account.

Time Position Orientation Groundspeed Altitude Reporting Facility
EDT Latitude Longitude Course Direction KTS MPH feet Rate Location/Type
11:14AM 37.6500 -122.3667 293° West 146 168 1,800  Level Northern Cal TRACON
11:15AM 37.6667 -122.4167 293° West 190 219 3,900 2,100 Climbing Northern Cal TRACON
11:16AM 37.6500 -122.4667 247° West 195 224 6,000 1,920 Climbing Northern Cal TRACON
11:17AM 37.6094 -122.5378 234° Southwest 204 235 8,100 1,860 Climbing Oakland Center
11:18AM 37.5542 -122.5669 203° Southwest 228 262 10,100 1,920 Climbing Oakland Center
11:19AM 37.4911 -122.5525 170° South 236 272 12,100 1,740 Climbing Oakland Center
11:21AM 37.3694 -122.5181 167° South 225 259 15,400 1,440 Climbing Oakland Center
11:22AM 37.3069 -122.5000 167° South 228 262 16,600 1,140 Climbing Oakland Center
11:23AM 37.2383 -122.4847 170° South 245 282 17,800 1,260 Climbing Oakland Center
11:24AM 37.1692 -122.4667 168° South 254 292 19,200 1,320 Climbing Oakland Center
11:26AM 37.0353 -122.4008 159° South 256 295 21,900 1,200 Climbing Los Angeles Center
11:27AM 36.9847 -122.3475 140° Southeast 258 297 23,000 1,080 Climbing Oakland Center
11:28AM 36.9283 -122.2961 144° Southeast 255 293 24,200 960 Climbing Oakland Center
11:29AM 36.8619 -122.2292 141° Southeast 260 299 25,000 360 Climbing Oakland Center
11:30AM 36.7969 -122.1708 144° Southeast 289 333 25,000  Level Oakland Center
11:31AM 36.7311 -122.1108 144° Southeast 295 339 25,000  Level Oakland Center
11:32AM 36.6658 -122.0467 142° Southeast 300 345 25,000  Level Oakland Center
11:33AM 36.5994 -121.9858 144° Southeast 298 343 25,000  Level Oakland Center
11:34AM 36.5342 -121.9228 142° Southeast 297 342 25,000  Level Oakland Center
11:35AM 36.4678 -121.8606 143° Southeast 299 344 25,000  Level Oakland Center
11:36AM 36.3989 -121.7936 142° Southeast 299 344 25,000  Level Oakland Center
11:37AM 36.3319 -121.7314 143° Southeast 301 346 25,000  Level Oakland Center
11:38AM 36.2653 -121.6717 144° Southeast 299 344 25,000  Level Oakland Center
11:39AM 36.2003 -121.6081 142° Southeast 298 343 25,000  Level Oakland Center
11:40AM 36.1336 -121.5472 144° Southeast 297 342 25,000  Level Oakland Center
11:41AM 36.0689 -121.4850 142° Southeast 298 343 25,000  Level Oakland Center
11:42AM 36.0025 -121.4244 144° Southeast 297 342 25,000  Level Oakland Center
11:43AM 35.9369 -121.3625 143° Southeast 298 343 25,000  Level Oakland Center
11:44AM 35.8578 -121.2900 143° Southeast 297 342 25,000  Level Oakland Center
11:45AM 35.7922 -121.2289 143° Southeast 298 343 25,000  Level Oakland Center
11:46AM 35.7239 -121.1681 144° Southeast 304 350 25,000  Level Oakland Center
11:47AM 35.6544 -121.1036 143° Southeast 313 360 25,000  Level Oakland Center
11:48AM 35.5842 -121.0397 144° Southeast 316 364 25,000  Level Oakland Center
11:49AM 35.5133 -120.9756 144° Southeast 317 365 25,000  Level Oakland Center
11:50AM 35.4431 -120.9106 143° Southeast 319 367 25,000  Level Oakland Center
11:51AM 35.3728 -120.8458 143° Southeast 319 367 25,000 -240 Level Oakland Center
11:52AM 35.3225 -120.8017 144° Southeast 318 366 24,600 -540 Descending Los Angeles Center
11:53AM 35.2364 -120.7250 144° Southeast 319 367 24,000 -480 Descending Los Angeles Center
11:54AM 35.1517 -120.6472 143° Southeast 317 365 23,600 -960 Descending Los Angeles Center
11:55AM 35.0717 -120.6125 160° South 306 352 22,100 -1,260 Descending Los Angeles Center
11:56AM 34.9906 -120.5794 162° South 306 352 21,000 -540 Descending Los Angeles Center
11:57AM 34.9222 -120.5228 146° Southeast 307 353 21,000  Level Los Angeles Center
11:59AM 34.8608 -120.4578 139° Southeast 292 336 21,000  Level Los Angeles Center
12:00PM 34.8031 -120.3931 137° Southeast 282 325 21,000 -1,560 Level Los Angeles Center
12:01PM 34.7383 -120.3197 137° Southeast 266 306 17,800 -3,240 Descending Los Angeles Center
12:01PM 34.7189 -120.3000 140° Southeast 288 331 16,800 -3,780 Descending Los Angeles Center
12:02PM 34.6761 -120.2503 136° Southeast 293 337 13,900 -3,720 Descending Los Angeles Center
12:03PM 34.5986 -120.2025 153° Southeast 310 357 10,200 -3,480 Descending Los Angeles Center
12:04PM 34.5267 -120.1633 156° South 295 339 6,800 -2,520 Descending Los Angeles Center
12:05PM 34.4572 -120.1339 161° South 274 315 5,000 -1,740 Descending Los Angeles Center
12:06PM 34.4206 -120.0614 121° Southeast 185 213 3,000 -1,260 Descending Los Angeles Center
12:07PM 34.4242 -120.0094 85° East 179 206 2,400 -780 Descending Los Angeles Center
12:08PM 34.4258 -119.9478 88° East 152 175 1,500 -780 Descending Los Angeles Center
12:09PM 34.4253 -119.9061 91° East 131 151 800 -660 Descending Los Angeles Center
12:10PM 34.4286 -119.8656 84° East 140 161 300 -540 Descending Los Angeles Center
12:12PM 34.4262 -119.8415 90° East  Level Estimated